Etusivu
METAR-TAF:

METAR-TAF

Lentoasemat :

Ontario Municipal Airport

Ontario, Oregon, Yhdysvallat

Leveyspiiri: 44-01-10N, Pituuspiiri: 117-00-35W, korkeus merenpinnasta: 667 m

Tämänhetkinen sää

Tämä raportti tehtiin 25 minuuttia sitten, kello 13.53 UTC
tyyntä
Lämpötila 5°C
Kosteus 87%
Ilmanpaine 1016 hPa
Näkyvyys: 16.1 km
Hajonneita pilviä 8000 ft:n korkeudessa

METAR: KONO 301353Z AUTO 00000KT 10SM BKN080 05/03 A3001 RMK AO2 SLP171 T00500028

Aika: 08:18 (14:18 UTC)


TAF: puuttuu

Säähavainnot ja -ennusteet yli 4000 lentoasemalta (METAR- ja TAF-raportit).

Käytössä olevat sääasemat on merkitty karttaan keltaisilla ja punaisilla pisteillä.

Aseta hiiri pisteen päälle nähdäksesi sääaseman nimen.

Klikkaa sitten nähdäksesi säähavainnot ja -ennusteet.

Kartan vaihtaminen: klikkaa mustalla rastilla varustettuja vihreitä pisteitä, niin voit zoomata sisään; viivalla varustettua vihreää pistettä, niin voit zoomata ulos tai vihreitä nuolia, niin pääset viereisille kartoille.


METAR-TAF: